Список аэропортов
Фактическая погода:

24 октября, 11:50
Температура: +20°C (+20.0*)
Ветер: западный 5 м/с
Давление: *752 мм
неб. облачность
750 м
Время (МСК)Темп. СВетерВлажностьДавлениеОблачностьОсадки
09:00+14З, 3 м/с74%1002 гПаясно
10:00+17З, 3 м/с60%1002 гПаясно
11:00+18З, 2 м/с55%1002 гПаясно
12:00+20З, 3 м/с50%1002 гПамалооблачно
13:00+20ЮЗ, 3 м/с46%1002 гПас прояснениями
14:00+21ЮЗ, 3 м/с44%1002 гПас прояснениями
15:00+21ЮЗ, 3 м/с44%1002 гПамалооблачно
16:00+21ЮЗ, 3 м/с45%1002 гПамалооблачно
17:00+20Ю, 3 м/с48%1002 гПамалооблачно
18:00+19ЮВ, 3 м/с58%1002 гПас прояснениями
19:00+18ЮВ, 3 м/с66%1002 гПамалооблачносл. дождь
20:00+17В, 2 м/с72%1003 гПамалооблачносл. дождь
21:00+15СВ, 3 м/с86%1004 гПаоблачнодождь
22:00+15СВ, 3 м/с90%1004 гПас прояснениямидождь
23:00+14СВ, 2 м/с92%1004 гПамалооблачно
25 октября
00:00+14СВ, 2 м/с94%1004 гПас прояснениями
01:00+14С, 2 м/с95%1005 гПас прояснениями
02:00+14С, 3 м/с94%1005 гПаоблачно
03:00+14С, 3 м/с95%1005 гПас прояснениями
04:00+14С, 3 м/с95%1005 гПаоблачно
05:00+14С, 2 м/с96%1005 гПаоблачно
06:00+14С, 2 м/с97%1006 гПаоблачно
07:00+14С, 2 м/с95%1006 гПаоблачно
08:00+14С, 2 м/с94%1007 гПаоблачно
09:00+15СВ, 2 м/с92%1008 гПаоблачно
10:00+16СВ, 3 м/с89%1009 гПас прояснениямисл. дождь
11:00+17В, 3 м/с84%1010 гПас прояснениямисл. дождь
12:00+17В, 3 м/с87%1010 гПаоблачнодождь
13:00+18В, 4 м/с87%1011 гПаоблачнодождь
14:00+18В, 4 м/с87%1011 гПаоблачнодождь
15:00+18В, 4 м/с87%1012 гПаоблачнодождь
16:00+17В, 3 м/с87%1012 гПаоблачнодождь
17:00+18СВ, 2 м/с84%1013 гПаоблачносл. дождь
18:00+17СВ, 4 м/с87%1014 гПаоблачносл. дождь
19:00+16СВ, 4 м/с91%1014 гПаоблачносл. дождь
20:00+16СВ, 5 м/с92%1015 гПаоблачносл. дождь
21:00+16СВ, 6 м/с93%1016 гПаоблачнодождь
22:00+16СВ, 6 м/с92%1017 гПаоблачнодождь
23:00+16СВ, 7 м/с92%1017 гПаоблачнодождь
26 октября
00:00+16СВ, 7 м/с92%1018 гПаоблачнодождь
01:00+16СВ, 7 м/с93%1018 гПаоблачнодождь
02:00+16СВ, 8 м/с92%1019 гПаоблачнодождь
03:00+16СВ, 8 м/с89%1019 гПаоблачнодождь
04:00+16СВ, 8 м/с89%1019 гПаоблачно
05:00+15С, 8 м/с87%1020 гПаоблачно
06:00+15С, 9 м/с85%1020 гПаоблачно
07:00+14С, 9 м/с88%1020 гПаоблачносл. дождь
08:00+14СВ, 8 м/с86%1021 гПас прояснениямисл. дождь
09:00+15СВ, 9 м/с86%1022 гПаоблачносл. дождь